Time;durP1;ratioP1;P1;durP2;ratioP2;P2;SDS_P1;SDS_P2;PMS_P1;PMS_P2;Temp;Humidity;BMP_temperature;BMP_pressure;BME280_temperature;BME280_humidity;BME280_pressure;Samples;Min_cycle;Max_cycle;Signal;HPM_P1;HPM_P2
2021/06/21 00:01:49;;;;;;;16.35;4.17;;;;;;;25.81;62.62;101059.47;1736254;81;21093;-56
2021/06/21 00:04:16;;;;;;;19.80;4.83;;;;;;;25.79;62.71;101061.41;1741780;82;21018;-55
2021/06/21 00:06:45;;;;;;;18.35;4.92;;;;;;;25.77;62.77;101062.02;1746854;81;21510;-58
2021/06/21 00:09:12;;;;;;;25.88;5.80;;;;;;;25.77;62.83;101064.69;1736447;81;21010;-55
2021/06/21 00:11:40;;;;;;;27.37;5.47;;;;;;;25.76;62.88;101061.64;1737369;82;20994;-55
2021/06/21 00:14:08;;;;;;;35.05;6.72;;;;;;;25.74;62.94;101062.25;1731995;81;21054;-54
2021/06/21 00:16:36;;;;;;;25.95;5.28;;;;;;;25.73;62.87;101065.91;1746089;80;21062;-55
2021/06/21 00:19:04;;;;;;;32.88;5.40;;;;;;;25.71;62.83;101062.52;1742729;81;21129;-55
2021/06/21 00:21:33;;;;;;;28.00;5.62;;;;;;;25.69;62.97;101059.12;1739147;81;21113;-55
2021/06/21 00:24:01;;;;;;;23.40;6.03;;;;;;;25.67;63.10;101059.73;1745807;80;21003;-58
2021/06/21 00:26:29;;;;;;;27.00;6.75;;;;;;;25.66;63.15;101048.69;1744849;81;21035;-54
2021/06/21 00:28:57;;;;;;;23.38;4.90;;;;;;;25.65;63.32;101059.00;1742089;80;21511;-55
2021/06/21 00:31:24;;;;;;;18.67;5.20;;;;;;;25.67;63.33;101054.88;1747376;80;21015;-56
2021/06/21 00:33:50;;;;;;;16.52;4.90;;;;;;;25.66;63.37;101050.50;1740931;81;21038;-62
2021/06/21 00:36:17;;;;;;;20.55;5.80;;;;;;;25.63;63.43;101058.28;1752576;80;21015;-55
2021/06/21 00:38:44;;;;;;;23.45;5.78;;;;;;;25.64;63.46;101055.96;1760754;80;21046;-61
2021/06/21 00:41:10;;;;;;;23.85;5.12;;;;;;;25.61;63.77;101048.23;1745390;81;21050;-55
2021/06/21 00:43:37;;;;;;;26.25;6.58;;;;;;;25.61;63.77;101048.23;1739410;81;20982;-55
2021/06/21 00:46:04;;;;;;;22.00;5.33;;;;;;;25.62;63.66;101049.91;1728058;81;21011;-59
2021/06/21 00:48:30;;;;;;;23.45;5.15;;;;;;;25.59;63.69;101047.50;1743572;81;21084;-54
2021/06/21 00:50:57;;;;;;;20.77;5.50;;;;;;;25.59;63.69;101044.84;1738778;80;21089;-53
2021/06/21 00:53:24;;;;;;;26.73;5.65;;;;;;;25.58;63.80;101048.45;1748530;81;21062;-53
2021/06/21 00:55:51;;;;;;;22.02;5.22;;;;;;;25.58;63.80;101053.78;1759529;80;21101;-53
2021/06/21 00:58:17;;;;;;;23.40;5.37;;;;;;;25.58;63.94;101056.45;1741487;81;20998;-57
2021/06/21 01:00:45;;;;;;;20.90;4.65;;;;;;;25.58;64.02;101051.13;1749641;80;21510;-53
2021/06/21 01:03:12;;;;;;;25.50;4.85;;;;;;;25.58;64.07;101048.45;1752743;80;20991;-57
2021/06/21 01:05:39;;;;;;;25.50;4.90;;;;;;;25.58;64.19;101045.80;1742765;80;21015;-57
2021/06/21 01:08:07;;;;;;;23.55;4.75;;;;;;;25.60;64.26;101047.84;1748333;81;21057;-53
2021/06/21 01:10:38;;;;;;;25.65;4.95;;;;;;;25.62;64.31;101051.23;1742235;81;20993;-54
2021/06/21 01:13:48;;;;;;;27.60;5.62;;;;;;;25.63;64.32;101048.09;1735487;81;21078;-54
2021/06/21 01:16:19;;;;;;;32.67;5.65;;;;;;;25.64;64.38;101053.30;1688192;83;21059;-55
2021/06/21 01:18:58;;;;;;;27.80;5.78;;;;;;;25.65;64.41;101047.02;1695808;83;21048;-55
2021/06/21 01:21:59;;;;;;;25.88;5.92;;;;;;;25.66;64.40;101042.03;1695512;84;21565;-56
2021/06/21 01:25:05;;;;;;;23.50;5.53;;;;;;;25.67;64.39;101046.41;1696656;84;21035;-55
2021/06/21 01:27:49;;;;;;;29.52;6.45;;;;;;;25.67;64.41;101050.41;1641572;86;21795;-55
2021/06/21 01:30:19;;;;;;;37.75;7.40;;;;;;;25.67;64.51;101050.41;1607121;89;21581;-56
2021/06/21 01:32:53;;;;;;;38.20;6.37;;;;;;;25.68;64.50;101049.89;1604347;89;21085;-55
2021/06/21 01:35:37;;;;;;;28.40;6.78;;;;;;;25.69;64.55;101034.28;1607188;89;21058;-55
2021/06/21 01:38:12;;;;;;;22.60;5.58;;;;;;;25.71;64.60;101040.33;1596303;89;21550;-54
2021/06/21 01:40:42;;;;;;;27.87;6.53;;;;;;;25.71;64.69;101043.86;1559093;90;21177;-54
2021/06/21 01:43:13;;;;;;;33.50;6.53;;;;;;;25.73;64.70;101040.58;1600456;90;21609;-54
2021/06/21 01:45:40;;;;;;;;;;;;;;;25.75;64.72;101041.78;1602692;90;21039;-55
2021/06/21 01:48:07;;;;;;;36.77;7.03;;;;;;;25.74;64.80;101043.59;1568945;90;20142;-57
2021/06/21 01:50:34;;;;;;;30.25;6.65;;;;;;;25.75;64.84;101050.63;1600356;90;21091;-56
2021/06/21 01:53:13;;;;;;;33.58;7.70;;;;;;;25.76;64.80;101044.31;1589279;88;21636;-55
2021/06/21 01:55:44;;;;;;;30.65;5.75;;;;;;;25.77;64.71;101050.02;1582209;89;21069;-55
2021/06/21 01:58:12;;;;;;;35.95;6.70;;;;;;;25.77;64.64;101038.51;1584705;89;21046;-56
2021/06/21 02:00:41;;;;;;;29.42;5.87;;;;;;;25.77;64.58;101042.03;1587139;89;21102;-54
2021/06/21 02:03:08;;;;;;;22.35;4.97;;;;;;;25.78;64.50;101050.37;1574321;89;21106;-55
2021/06/21 02:05:35;;;;;;;28.15;5.83;;;;;;;25.77;64.46;101054.02;1634931;86;21044;-56
2021/06/21 02:08:02;;;;;;;24.63;6.47;;;;;;;25.76;64.39;101061.64;1675340;84;21148;-55
2021/06/21 02:10:32;;;;;;;32.78;5.95;;;;;;;25.77;64.39;101063.35;1712936;83;21013;-56
2021/06/21 02:12:58;;;;;;;23.90;5.65;;;;;;;25.76;64.36;101070.97;1722130;83;21081;-55
2021/06/21 02:15:25;;;;;;;31.00;6.05;;;;;;;25.76;64.36;101078.14;1705279;83;21087;-54
2021/06/21 02:17:52;;;;;;;27.22;6.78;;;;;;;25.76;64.33;101082.97;1710376;83;21117;-56
2021/06/21 02:20:21;;;;;;;27.20;7.25;;;;;;;25.76;64.33;101076.81;1696794;83;21117;-55
2021/06/21 02:22:48;;;;;;;26.77;7.55;;;;;;;25.74;64.29;101083.58;1703532;83;21584;-55
2021/06/21 02:25:15;;;;;;;17.77;5.30;;;;;;;25.71;64.38;101091.83;1690253;83;21014;-63
2021/06/21 02:27:42;;;;;;;18.87;4.85;;;;;;;25.68;64.45;101097.39;1701453;83;21194;-56
2021/06/21 02:30:14;;;;;;;19.37;5.42;;;;;;;25.71;64.42;101094.98;1701222;83;21506;-57
2021/06/21 02:32:44;;;;;;;18.25;5.03;;;;;;;25.71;64.41;101098.97;1711413;83;21078;-56
2021/06/21 02:35:13;;;;;;;16.77;4.75;;;;;;;25.71;64.39;101097.16;1663763;85;21061;-55
2021/06/21 02:37:40;;;;;;;22.93;5.50;;;;;;;25.71;64.33;101099.83;1695127;82;20990;-55
2021/06/21 02:40:10;;;;;;;11.80;4.30;;;;;;;25.71;64.33;101098.50;1706198;83;21142;-56
2021/06/21 02:42:38;;;;;;;16.45;4.42;;;;;;;25.71;64.32;101090.50;1710669;83;21105;-55
2021/06/21 02:45:06;;;;;;;20.17;4.17;;;;;;;25.73;64.29;101103.22;1704945;83;21093;-55
2021/06/21 02:47:33;;;;;;;17.30;4.90;;;;;;;25.74;64.31;101110.23;1709225;82;21038;-53
2021/06/21 02:50:01;;;;;;;11.55;3.70;;;;;;;25.74;64.29;101108.90;1699409;83;21042;-53
2021/06/21 02:53:04;;;;;;;8.03;3.27;;;;;;;25.75;64.21;101107.95;1708859;83;21062;-53
2021/06/21 02:55:43;;;;;;;10.72;3.20;;;;;;;25.76;64.16;101105.63;1709698;83;21058;-61
2021/06/21 02:58:25;;;;;;;13.43;3.70;;;;;;;25.75;64.28;101096.42;1638591;86;21105;-55
2021/06/21 03:00:55;;;;;;;12.37;3.20;;;;;;;25.75;64.19;101087.95;1645085;85;21141;-55
2021/06/21 03:03:25;;;;;;;12.37;4.53;;;;;;;25.75;64.19;101087.95;1642269;86;21534;-55
2021/06/21 03:05:52;;;;;;;10.10;3.42;;;;;;;25.77;64.35;101089.16;1623554;87;21052;-55
2021/06/21 03:08:19;;;;;;;12.43;3.17;;;;;;;25.78;64.36;101092.20;1642672;85;21161;-55
2021/06/21 03:10:48;;;;;;;11.08;3.15;;;;;;;25.79;64.43;101104.06;1642250;86;21143;-56
2021/06/21 03:13:19;;;;;;;14.60;3.72;;;;;;;25.79;64.49;101105.40;1637264;86;21549;-55
2021/06/21 03:15:46;;;;;;;10.93;3.33;;;;;;;25.82;64.61;101112.31;1625057;87;21077;-55
2021/06/21 03:18:14;;;;;;;12.35;4.20;;;;;;;25.84;64.61;101105.86;1627770;87;21482;-55
2021/06/21 03:20:43;;;;;;;11.22;2.95;;;;;;;25.88;64.63;101105.63;1625700;86;21151;-55
2021/06/21 03:23:10;;;;;;;18.98;3.85;;;;;;;25.90;64.56;101101.02;1625046;86;21087;-56
2021/06/21 03:25:37;;;;;;;14.28;4.40;;;;;;;25.93;64.48;101098.09;1630747;87;21042;-54
2021/06/21 03:28:11;;;;;;;9.08;3.25;;;;;;;25.94;64.40;101095.81;1627970;86;21569;-55
2021/06/21 03:30:49;;;;;;;14.00;3.08;;;;;;;25.96;64.31;101092.53;1614570;88;21581;-54
2021/06/21 03:33:16;;;;;;;12.18;3.25;;;;;;;25.97;64.29;101107.55;1534121;91;21099;-54
2021/06/21 03:35:44;;;;;;;5.42;2.33;;;;;;;25.97;64.25;101110.21;1538617;90;21560;-55
2021/06/21 03:38:20;;;;;;;9.38;2.65;;;;;;;25.98;64.23;101105.26;1552115;91;21099;-54
2021/06/21 03:40:50;;;;;;;8.08;2.77;;;;;;;25.97;64.22;101102.21;1537845;91;21096;-55
2021/06/21 03:43:19;;;;;;;8.93;2.37;;;;;;;25.96;64.21;101104.05;1543268;91;21187;-56
2021/06/21 03:45:49;;;;;;;14.95;3.10;;;;;;;25.97;64.24;101111.06;1556708;91;21122;-55
2021/06/21 03:48:16;;;;;;;5.80;2.52;;;;;;;25.99;64.19;101109.64;1565543;90;21069;-56
2021/06/21 03:50:43;;;;;;;8.13;2.65;;;;;;;26.00;64.15;101106.84;1544721;90;21066;-55
2021/06/21 03:53:10;;;;;;;14.90;3.20;;;;;;;26.02;64.13;101112.04;1541706;92;21139;-54
2021/06/21 03:55:38;;;;;;;8.40;3.58;;;;;;;26.05;64.09;101118.48;1549450;90;21144;-54
2021/06/21 03:58:06;;;;;;;14.23;3.72;;;;;;;26.06;64.07;101120.16;1544064;91;21219;-55
2021/06/21 04:00:34;;;;;;;21.45;4.37;;;;;;;26.08;64.14;101120.91;1543635;92;21579;-54
2021/06/21 04:03:02;;;;;;;24.18;5.05;;;;;;;26.10;64.12;101120.30;1550894;92;21684;-58
2021/06/21 04:05:29;;;;;;;21.42;4.58;;;;;;;26.12;64.04;101116.55;1561072;91;21071;-55
2021/06/21 04:07:57;;;;;;;20.10;4.62;;;;;;;26.15;64.02;101114.13;1545725;90;21146;-55
2021/06/21 04:10:26;;;;;;;30.72;6.22;;;;;;;26.16;63.97;101123.80;1553688;91;21562;-55
2021/06/21 04:12:53;;;;;;;26.05;5.65;;;;;;;26.18;64.07;101124.53;1532569;93;21099;-55
2021/06/21 04:15:30;;;;;;;28.07;5.12;;;;;;;26.22;64.16;101129.98;1543476;92;21063;-54
2021/06/21 04:18:03;;;;;;;25.50;5.20;;;;;;;26.26;64.14;101128.76;1527575;93;21095;-55
2021/06/21 04:20:32;;;;;;;17.20;5.37;;;;;;;26.31;64.31;101124.77;1543993;90;21621;-54
2021/06/21 04:22:59;;;;;;;24.10;6.28;;;;;;;26.37;64.08;101124.74;1545679;92;22617;-55
2021/06/21 04:25:26;;;;;;;23.22;4.80;;;;;;;26.41;63.97;101115.52;1553401;91;21093;-55
2021/06/21 04:27:54;;;;;;;32.88;6.10;;;;;;;26.53;63.42;101123.84;1561836;90;21121;-55
2021/06/21 04:30:23;;;;;;;30.60;5.53;;;;;;;26.59;63.35;101124.67;1611814;87;21108;-54
2021/06/21 04:32:49;;;;;;;21.45;5.53;;;;;;;26.59;63.35;101124.67;1623317;87;21089;-57
2021/06/21 04:35:18;;;;;;;24.87;4.83;;;;;;;26.67;62.48;101130.73;1625138;87;21598;-55
2021/06/21 04:37:45;;;;;;;30.32;6.67;;;;;;;26.68;62.45;101136.41;1673517;83;21489;-60
2021/06/21 04:40:15;;;;;;;27.02;5.20;;;;;;;26.68;62.45;101136.41;1692439;84;21082;-56
2021/06/21 04:42:42;;;;;;;28.73;6.08;;;;;;;26.67;62.56;101130.22;1683382;84;21074;-55
2021/06/21 04:45:09;;;;;;;25.82;5.28;;;;;;;26.67;62.56;101130.22;1698039;83;21565;-55
2021/06/21 04:47:36;;;;;;;27.05;6.20;;;;;;;26.67;62.38;101122.21;1670818;85;21089;-55
2021/06/21 04:50:08;;;;;;;22.35;5.35;;;;;;;26.71;62.33;101126.31;1689787;83;21045;-55
2021/06/21 04:52:38;;;;;;;23.60;4.87;;;;;;;26.73;62.28;101122.24;1691315;83;21052;-62
2021/06/21 04:55:08;;;;;;;25.57;5.40;;;;;;;26.78;62.38;101123.55;1658815;84;21144;-55
2021/06/21 04:57:35;;;;;;;38.63;7.00;;;;;;;26.82;62.24;101128.13;1700646;84;21088;-55
2021/06/21 05:00:07;;;;;;;28.92;5.90;;;;;;;26.85;62.15;101123.41;1672032;84;21078;-54
2021/06/21 05:02:34;;;;;;;20.20;4.72;;;;;;;26.92;62.14;101131.24;1630760;86;21051;-55
2021/06/21 05:05:01;;;;;;;21.07;5.12;;;;;;;26.98;61.98;101137.41;1639560;87;21115;-55
2021/06/21 05:07:27;;;;;;;33.63;6.10;;;;;;;27.02;61.84;101146.86;1632816;86;21552;-55
2021/06/21 05:09:54;;;;;;;29.30;5.87;;;;;;;27.12;62.19;101146.95;1639047;87;21071;-55
2021/06/21 05:12:21;;;;;;;27.37;6.60;;;;;;;27.12;62.19;101146.95;1643006;86;21920;-56
2021/06/21 05:14:49;;;;;;;32.03;7.47;;;;;;;27.17;62.28;101142.05;1615303;87;21086;-55
2021/06/21 05:17:17;;;;;;;37.83;6.80;;;;;;;27.29;62.12;101155.22;1648024;85;20992;-55
2021/06/21 05:19:44;;;;;;;37.85;7.00;;;;;;;27.35;61.61;101155.20;1675270;84;21073;-56
2021/06/21 05:22:11;;;;;;;31.00;7.33;;;;;;;27.43;61.12;101161.25;1674681;83;21018;-54
2021/06/21 05:24:38;;;;;;;30.15;6.87;;;;;;;27.45;60.96;101160.62;1668026;84;21061;-55
2021/06/21 05:27:06;;;;;;;34.18;7.50;;;;;;;27.46;60.95;101155.63;1659853;85;21093;-59
2021/06/21 05:29:33;;;;;;;31.97;7.50;;;;;;;27.49;60.80;101164.73;1669201;84;21049;-55
2021/06/21 05:32:03;;;;;;;38.45;6.10;;;;;;;27.52;60.80;101160.45;1640383;86;21094;-52
2021/06/21 05:34:30;;;;;;;32.40;7.53;;;;;;;27.56;60.63;101156.53;1601661;88;21046;-58
2021/06/21 05:36:57;;;;;;;30.68;6.37;;;;;;;27.59;60.41;101150.93;1585456;89;21931;-53
2021/06/21 05:39:24;;;;;;;22.67;5.80;;;;;;;27.59;60.22;101154.94;1590012;89;21096;-55
2021/06/21 05:41:52;;;;;;;26.42;6.00;;;;;;;27.60;60.04;101155.28;1628787;86;21047;-53
2021/06/21 05:44:18;;;;;;;23.52;6.28;;;;;;;27.59;59.96;101157.61;1621818;86;22142;-56
2021/06/21 05:46:47;;;;;;;26.10;5.70;;;;;;;27.61;60.08;101158.33;1641456;86;21015;-52
2021/06/21 05:49:14;;;;;;;25.75;5.65;;;;;;;27.62;60.24;101164.02;1634040;86;21343;-52
2021/06/21 05:51:42;;;;;;;26.35;7.25;;;;;;;27.67;60.41;101167.16;1631924;86;21073;-56
2021/06/21 05:54:08;;;;;;;23.47;5.45;;;;;;;27.69;60.17;101167.87;1626665;86;21098;-54
2021/06/21 05:56:36;;;;;;;32.35;7.83;;;;;;;27.71;60.05;101164.56;1620097;86;21506;-57
2021/06/21 05:59:03;;;;;;;32.28;6.87;;;;;;;27.75;60.11;101170.01;1632098;86;21097;-54
2021/06/21 06:01:31;;;;;;;36.40;8.30;;;;;;;27.78;59.95;101161.73;1664752;83;21552;-53
2021/06/21 06:03:58;;;;;;;42.35;7.55;;;;;;;27.85;60.11;101165.55;1672127;83;21027;-52
2021/06/21 06:06:25;;;;;;;30.65;7.45;;;;;;;27.93;59.89;101163.05;1682554;83;21090;-57
2021/06/21 06:08:52;;;;;;;46.37;9.10;;;;;;;28.03;59.52;101163.97;1688442;83;21554;-55
2021/06/21 06:11:20;;;;;;;26.75;7.00;;;;;;;28.14;59.69;101162.53;1688920;84;20998;-55
2021/06/21 06:13:47;;;;;;;28.95;7.53;;;;;;;28.29;59.47;101158.99;1686333;83;21022;-53
2021/06/21 06:16:14;;;;;;;33.60;7.53;;;;;;;28.43;58.79;101150.08;1690563;84;21544;-53
2021/06/21 06:18:44;;;;;;;32.55;7.40;;;;;;;28.62;58.28;101149.30;1685560;83;21502;-54
2021/06/21 06:21:17;;;;;;;27.85;8.10;;;;;;;28.80;57.65;101144.94;1690842;83;21160;-54
2021/06/21 06:23:43;;;;;;;;;;;;;;;29.01;57.14;101143.45;1644244;84;21635;-54
2021/06/21 06:26:10;;;;;;;25.48;5.90;;;;;;;29.19;56.44;101139.09;1691574;83;20125;-51
2021/06/21 06:28:39;;;;;;;27.90;6.95;;;;;;;29.32;56.10;101142.33;1696321;83;21407;-52
2021/06/21 06:31:07;;;;;;;30.00;6.28;;;;;;;29.39;55.64;101144.27;1705159;80;21073;-53
2021/06/21 06:33:34;;;;;;;28.40;6.55;;;;;;;29.43;55.23;101142.17;1760828;80;21027;-55
2021/06/21 06:36:00;;;;;;;32.58;7.83;;;;;;;29.43;55.10;101151.03;1751118;80;21022;-52
2021/06/21 06:38:27;;;;;;;30.95;7.83;;;;;;;29.41;54.78;101161.06;1751593;80;21617;-54
2021/06/21 06:40:55;;;;;;;27.48;6.92;;;;;;;29.38;54.63;101160.52;1753975;80;21047;-58
2021/06/21 06:43:22;;;;;;;36.45;7.35;;;;;;;29.31;54.59;101163.41;1748369;80;21568;-54
2021/06/21 06:45:51;;;;;;;28.52;7.15;;;;;;;29.21;54.90;101169.27;1701967;83;21026;-53
2021/06/21 06:48:18;;;;;;;23.98;7.10;;;;;;;29.16;54.95;101175.05;1704910;82;21028;-54
2021/06/21 06:50:45;;;;;;;35.43;8.20;;;;;;;29.10;55.12;101172.09;1688355;84;21047;-55
2021/06/21 06:53:14;;;;;;;30.00;7.33;;;;;;;29.03;55.10;101166.94;1694134;83;20983;-52
2021/06/21 06:58:26;;;;;;;39.98;22.98;;;;;;;28.89;55.34;101176.25;1679670;83;21031;-53
2021/06/21 07:00:54;;;;;;;25.17;9.85;;;;;;;28.82;55.78;101177.30;1737757;80;21042;-53
2021/06/21 07:03:20;;;;;;;30.30;8.15;;;;;;;28.78;55.86;101175.89;1763100;80;21104;-53
2021/06/21 07:05:47;;;;;;;26.90;6.42;;;;;;;28.75;56.27;101174.81;1756474;80;21399;-52
2021/06/21 07:08:14;;;;;;;25.52;7.40;;;;;;;28.73;56.28;101180.80;1740297;80;21026;-53
2021/06/21 07:10:41;;;;;;;26.37;6.83;;;;;;;28.72;56.18;101179.13;1762251;80;20999;-58
2021/06/21 07:13:10;;;;;;;21.15;5.85;;;;;;;28.70;56.20;101183.77;1760624;80;21037;-54
2021/06/21 07:15:37;;;;;;;28.02;6.50;;;;;;;28.70;56.53;101181.09;1751410;80;21096;-52
2021/06/21 07:18:04;;;;;;;17.65;4.85;;;;;;;28.72;56.30;101184.48;1756126;80;21501;-53
2021/06/21 07:20:31;;;;;;;23.20;5.90;;;;;;;28.73;56.12;101188.84;1748472;80;21451;-56
2021/06/21 07:22:58;;;;;;;20.80;5.85;;;;;;;28.75;56.25;101194.91;1740691;80;21029;-55
2021/06/21 07:25:25;;;;;;;27.07;12.98;;;;;;;28.75;56.24;101194.91;1753204;80;21537;-57
2021/06/21 07:27:52;;;;;;;33.18;8.35;;;;;;;28.76;56.22;101195.27;1756886;80;20991;-54
2021/06/21 07:30:19;;;;;;;24.00;6.80;;;;;;;28.77;56.03;101180.88;1755619;80;20994;-56
2021/06/21 07:32:47;;;;;;;26.27;7.37;;;;;;;28.78;55.93;101173.21;1733101;80;21041;-54
2021/06/21 07:35:14;;;;;;;25.65;5.85;;;;;;;28.78;56.12;101167.00;1746548;81;21015;-53
2021/06/21 07:37:41;;;;;;;22.87;6.70;;;;;;;28.79;55.99;101161.49;1751009;80;21019;-52
2021/06/21 07:40:09;;;;;;;23.07;8.45;;;;;;;28.81;55.58;101166.73;1744852;81;21045;-52
2021/06/21 07:42:36;;;;;;;26.42;8.08;;;;;;;28.83;55.53;101179.49;1745727;81;21030;-56
2021/06/21 07:45:04;;;;;;;26.68;6.92;;;;;;;28.83;55.72;101182.17;1753655;80;20995;-54
2021/06/21 07:47:31;;;;;;;25.72;6.83;;;;;;;28.84;55.65;101182.02;1748774;80;21093;-52
2021/06/21 07:49:58;;;;;;;27.25;6.60;;;;;;;28.87;55.66;101186.27;1756226;80;20994;-56
2021/06/21 07:52:25;;;;;;;28.98;5.85;;;;;;;28.90;55.41;101186.81;1759862;80;21017;-54
2021/06/21 07:54:52;;;;;;;28.27;6.20;;;;;;;28.93;55.38;101190.54;1760529;80;21014;-54
2021/06/21 07:57:19;;;;;;;23.47;6.33;;;;;;;28.97;55.56;101189.27;1756626;80;21411;-54
2021/06/21 07:59:46;;;;;;;31.90;6.65;;;;;;;29.01;55.36;101191.20;1761207;80;21081;-54
2021/06/21 08:02:13;;;;;;;24.45;6.05;;;;;;;29.05;55.08;101194.43;1748077;80;21070;-54
2021/06/21 08:04:40;;;;;;;27.42;6.37;;;;;;;29.08;55.00;101200.34;1747622;80;21086;-52
2021/06/21 08:07:07;;;;;;;42.13;14.70;;;;;;;29.08;54.70;101199.00;1740393;80;20996;-54
2021/06/21 08:09:33;;;;;;;69.45;29.45;;;;;;;29.10;54.77;101200.23;1738583;81;21493;-58
2021/06/21 08:12:00;;;;;;;132.82;58.92;;;;;;;29.11;54.65;101204.59;1742433;80;20999;-53
2021/06/21 08:14:27;;;;;;;99.80;48.10;;;;;;;29.13;54.55;101213.33;1741879;80;21069;-54
2021/06/21 08:16:54;;;;;;;88.22;44.98;;;;;;;29.15;54.35;101218.09;1737597;81;21115;-53
2021/06/21 08:19:21;;;;;;;29.65;11.28;;;;;;;29.16;54.46;101219.80;1744994;80;21102;-54
2021/06/21 08:21:48;;;;;;;42.40;16.52;;;;;;;29.18;54.49;101216.48;1744608;81;21546;-56
2021/06/21 08:24:15;;;;;;;49.55;23.47;;;;;;;29.19;54.54;101216.81;1752398;80;20949;-56
2021/06/21 08:26:42;;;;;;;32.60;13.65;;;;;;;29.20;54.46;101226.56;1768780;80;21003;-53
2021/06/21 08:29:09;;;;;;;24.85;11.18;;;;;;;29.21;54.39;101224.22;1757307;80;21002;-53
2021/06/21 08:31:36;;;;;;;28.80;10.18;;;;;;;29.23;54.40;101227.12;1744323;80;21034;-61
2021/06/21 08:34:03;;;;;;;29.48;10.15;;;;;;;29.26;54.26;101224.66;1753987;80;21518;-56
2021/06/21 08:36:30;;;;;;;19.62;6.65;;;;;;;29.28;54.11;101231.58;1731449;81;20974;-56
2021/06/21 08:38:57;;;;;;;26.87;7.25;;;;;;;29.26;53.83;101226.00;1735139;81;21372;-56
2021/06/21 08:41:24;;;;;;;21.85;6.67;;;;;;;29.22;53.92;101220.56;1742940;81;21050;-53
2021/06/21 08:43:52;;;;;;;15.50;6.75;;;;;;;29.16;54.04;101219.80;1752149;80;21541;-52
2021/06/21 08:46:19;;;;;;;23.12;8.38;;;;;;;29.09;54.47;101213.26;1749780;80;21490;-51
2021/06/21 08:48:48;;;;;;;23.00;10.25;;;;;;;29.08;54.49;101218.28;1763441;80;21502;-53
2021/06/21 08:51:16;;;;;;;23.67;9.20;;;;;;;29.07;54.48;101219.25;1764644;80;21065;-55
2021/06/21 08:53:43;;;;;;;21.07;8.10;;;;;;;29.08;54.59;101214.27;1747802;80;21483;-54
2021/06/21 08:56:11;;;;;;;24.67;8.43;;;;;;;29.10;54.50;101216.31;1751581;80;21518;-53
2021/06/21 08:58:41;;;;;;;20.23;5.78;;;;;;;29.12;54.50;101219.69;1715228;81;21550;-56
2021/06/21 09:01:08;;;;;;;20.80;6.87;;;;;;;29.15;54.41;101224.30;1734316;81;21023;-55
2021/06/21 09:03:35;;;;;;;14.55;7.62;;;;;;;29.17;54.43;101224.15;1681202;84;21076;-54
2021/06/21 09:06:03;;;;;;;21.93;6.87;;;;;;;29.18;54.40;101226.68;1714964;82;21482;-53
2021/06/21 09:08:32;;;;;;;24.23;7.40;;;;;;;29.21;54.40;101228.23;1713400;82;21509;-52
2021/06/21 09:10:59;;;;;;;23.73;6.90;;;;;;;29.24;54.38;101233.33;1715655;82;21125;-52
2021/06/21 09:13:32;;;;;;;20.97;6.25;;;;;;;29.26;54.38;101233.55;1702083;83;21094;-55
2021/06/21 09:15:59;;;;;;;21.55;5.75;;;;;;;29.30;54.20;101243.00;1647958;85;21055;-56
2021/06/21 09:18:37;;;;;;;13.78;5.47;;;;;;;29.31;54.03;101235.78;1652160;85;21088;-54
2021/06/21 09:21:28;;;;;;;15.20;5.72;;;;;;;29.33;54.24;101243.19;1669887;85;21614;-55
2021/06/21 09:23:59;;;;;;;16.80;5.78;;;;;;;29.32;53.98;101238.83;1676884;84;21898;-52
2021/06/21 09:26:31;;;;;;;18.70;5.35;;;;;;;29.33;54.10;101237.34;1714570;82;21108;-53
2021/06/21 09:29:00;;;;;;;12.05;5.42;;;;;;;29.33;53.93;101234.66;1716671;82;21013;-55
2021/06/21 09:31:27;;;;;;;16.35;6.53;;;;;;;29.31;54.20;101239.80;1735385;81;21055;-59
2021/06/21 09:34:04;;;;;;;14.33;5.85;;;;;;;29.34;53.93;101234.17;1746053;81;21100;-53
2021/06/21 09:36:35;;;;;;;14.87;8.48;;;;;;;29.36;53.95;101236.22;1650963;86;21072;-55
2021/06/21 09:39:26;;;;;;;17.10;5.70;;;;;;;29.36;54.02;101234.39;1654424;86;21050;-53
2021/06/21 09:42:22;;;;;;;12.25;5.37;;;;;;;29.37;54.21;101237.41;1653788;86;21517;-57
2021/06/21 09:47:35;;;;;;;13.53;6.47;;;;;;;29.39;53.83;101238.59;1555218;89;21118;-55
2021/06/21 09:50:26;;;;;;;16.20;5.33;;;;;;;29.39;53.79;101239.94;1556674;90;21092;-52
2021/06/21 09:52:57;;;;;;;14.10;4.62;;;;;;;29.41;53.82;101240.64;1549863;91;21099;-54
2021/06/21 09:55:30;;;;;;;23.45;6.22;;;;;;;29.43;53.62;101245.39;1566933;89;21119;-53
2021/06/21 09:58:12;;;;;;;13.53;6.05;;;;;;;29.43;53.52;101247.56;1596665;88;21501;-53
2021/06/21 10:00:49;;;;;;;13.88;5.12;;;;;;;29.44;53.44;101245.73;1594321;88;21659;-51
2021/06/21 10:03:27;;;;;;;15.95;5.40;;;;;;;29.46;53.58;101245.09;1599266;88;21050;-55
2021/06/21 10:06:11;;;;;;;11.85;4.65;;;;;;;29.47;53.02;101238.23;1594960;88;21073;-55
2021/06/21 10:08:47;;;;;;;15.50;7.12;;;;;;;29.45;53.33;101235.38;1598123;88;21126;-52
2021/06/21 10:11:37;;;;;;;19.12;10.75;;;;;;;29.44;53.36;101239.03;1590353;88;21007;-53
2021/06/21 10:14:10;;;;;;;13.85;4.70;;;;;;;29.44;53.30;101232.33;1589292;88;21095;-51
2021/06/21 10:16:37;;;;;;;15.30;4.08;;;;;;;29.44;52.91;101235.01;1534678;92;21083;-53
2021/06/21 10:19:05;;;;;;;7.53;3.65;;;;;;;29.43;53.19;101240.03;1534876;92;21166;-54
2021/06/21 10:21:35;;;;;;;8.60;4.22;;;;;;;29.39;53.06;101240.79;1577438;88;21080;-54
2021/06/21 10:24:03;;;;;;;9.43;4.37;;;;;;;29.35;53.05;101241.20;1613989;88;21146;-55
2021/06/21 10:26:31;;;;;;;9.10;4.47;;;;;;;29.33;53.36;101241.36;1606055;88;21565;-52
2021/06/21 10:28:58;;;;;;;10.78;4.65;;;;;;;29.35;53.29;101239.87;1610123;88;21232;-55
2021/06/21 10:31:27;;;;;;;8.28;3.58;;;;;;;29.33;53.27;101248.55;1608002;87;21661;-53
2021/06/21 10:34:04;;;;;;;15.00;4.70;;;;;;;29.35;53.18;101247.91;1539178;91;21642;-57
2021/06/21 10:36:47;;;;;;;9.38;4.78;;;;;;;29.34;53.03;101251.59;1497965;94;21603;-58
2021/06/21 10:39:22;;;;;;;15.15;10.23;;;;;;;29.34;53.40;101260.98;1525958;92;21570;-53
2021/06/21 10:42:12;;;;;;;19.07;15.08;;;;;;;29.35;53.50;101258.15;1525460;91;21054;-53
2021/06/21 10:44:55;;;;;;;14.87;5.43;;;;;;;29.38;53.10;101251.66;1541585;90;21102;-55
2021/06/21 10:47:41;;;;;;;12.28;4.92;;;;;;;29.38;53.23;101250.33;1615268;87;21030;-56
2021/06/21 10:50:24;;;;;;;9.03;3.70;;;;;;;29.37;52.99;101253.98;1620223;87;21065;-56
2021/06/21 10:52:56;;;;;;;11.65;4.65;;;;;;;29.35;53.34;101249.25;1614191;87;21598;-55
2021/06/21 10:55:35;;;;;;;10.13;4.75;;;;;;;29.35;53.43;101251.93;1607080;88;21533;-55
2021/06/21 10:58:23;;;;;;;11.93;5.87;;;;;;;29.36;53.27;101256.32;1596430;88;21516;-57
2021/06/21 11:00:51;;;;;;;10.45;4.45;;;;;;;29.34;53.28;101251.11;1603390;88;21128;-56
2021/06/21 11:03:31;;;;;;;14.20;9.03;;;;;;;29.35;53.10;101255.95;1606379;87;21069;-57
2021/06/21 11:06:05;;;;;;;9.23;5.00;;;;;;;29.33;52.99;101255.25;1609069;88;21945;-55
2021/06/21 11:08:47;;;;;;;10.60;4.78;;;;;;;29.31;53.14;101258.56;1602534;88;21018;-54
2021/06/21 11:11:42;;;;;;;10.72;3.95;;;;;;;29.29;53.35;101260.55;1600115;88;21195;-54
2021/06/21 11:14:24;;;;;;;11.05;3.80;;;;;;;29.28;53.41;101261.06;1647591;85;21120;-55
2021/06/21 11:16:56;;;;;;;9.20;3.72;;;;;;;29.28;53.18;101266.91;1650074;84;21070;-58
2021/06/21 11:19:25;;;;;;;;;;;;;;;29.26;52.74;101264.37;1649397;85;21577;-54
2021/06/21 11:21:58;;;;;;;10.80;4.30;;;;;;;29.23;52.91;101269.15;1565602;89;20130;-55
2021/06/21 11:24:46;;;;;;;10.43;3.95;;;;;;;29.18;53.28;101261.52;1567515;89;21109;-56
2021/06/21 11:27:19;;;;;;;10.85;3.65;;;;;;;29.16;53.27;101258.66;1562587;90;21178;-55
2021/06/21 11:29:57;;;;;;;9.23;4.00;;;;;;;29.13;53.39;101249.51;1558168;90;21094;-55
2021/06/21 11:32:25;;;;;;;10.35;4.15;;;;;;;29.12;53.42;101243.81;1540511;90;21579;-54
2021/06/21 11:34:57;;;;;;;5.92;3.25;;;;;;;29.12;53.49;101242.47;1555417;89;21046;-52
2021/06/21 11:37:50;;;;;;;10.32;7.08;;;;;;;29.10;53.18;101247.95;1542832;91;21155;-55